Armada, Michigan
Current Conditions -  °F | °C
As of 4:55 PM on Friday 28 Nov 2014 (Local Time) from KMTC Reporting Station
Light Snow Light Snow  
Wind Chill: 16°   Ceiling: 4600
Heat Index: 26°   Visibility: 7mi
Dew Point: 17°   Wind: 10mph
Humidity: 69%   Direction: 180°S
Pressure: 30.17"   Gusts: NA
Location:  42.84°N, 82.88°W
Report Text: KMTC 282155Z 18009KT 7SM -SN FEW020 FEW035 BKN046 OVC075 M03/M08 A3017 RMK SLP231 T10321081
Loading
Personal Weather Stations






























Interactive Weather Map New forecast layout! Learn more

10-Day Weather Forecast

Advertisements
Track Severe Weather on mobile